KNPA/NPA METAR and TAF weather

Enter ICAO airport designator
Station Type Date Time Source
KNPA METAR 2020/09/21 09:56 UTC NOAA

KNPA 210956Z AUTO 07013G22KT 9SM -RA OVC085 20/18 A3011 RMK AO2 SLP198 T02000178 PNO $


Station Type Date Time Source
KNPA Decoded METAR 2020/09/21 09:56 UTC NOAA

Pensacola, Naval Air Station, FL, United States (KNPA) 30-21-22N 087-19-24W 10M
Sep 21, 2020 - 05:56 AM EDT / 2020.09.21 0956 UTC
Wind: from the ENE (070 degrees) at 15 MPH (13 KT) gusting to 25 MPH (22 KT):0
Visibility: 9 mile(s):0
Sky conditions: overcast
Weather: light rain
Temperature: 68.0 F (20.0 C)
Dew Point: 64.0 F (17.8 C)
Relative Humidity: 87%
Pressure (altimeter): 30.11 in. Hg (1019 hPa)
ob: KNPA 210956Z AUTO 07013G22KT 9SM -RA OVC085 20/18 A3011 RMK AO2 SLP198 T02000178 PNO
cycle: 10

Station Type Date Time Source
KNPA TAF 2020/09/21 07:16 UTC NOAA

TAF KNPA 2107/2207 07018G25KT 9999 FEW015 FEW045 BKN100 OVC250 QNH3005INS
FM211400 07013G22KT 9999 FEW015 SCT045 BKN100 OVC250 QNH3004INS
FM211600 07016G23KT 9999 VCSH SCT015 SCT045 BKN100 OVC250 QNH3007INS
FM212300 07012G20KT 9999 SCT015 SCT045 BKN100 OVC200 QNH3008INS AUTOMATED SENSOR METWATCH 2107 TIL 2110 T19/2110Z T23/2120Z FN00085

Example: see airport list